Time;durP1;ratioP1;P1;durP2;ratioP2;P2;SDS_P1;SDS_P2;PMS_P1;PMS_P2;Temp;Humidity;BMP_temperature;BMP_pressure;BME280_temperature;BME280_humidity;BME280_pressure;Samples;Min_cycle;Max_cycle;Signal;HPM_P1;HPM_P2
2022/08/19 00:00:24;;;;;;;2.80;2.40;;;18.90;99.90;;;;;;5003344;28;20049;-83
2022/08/19 00:02:50;;;;;;;2.97;2.30;;;18.90;99.90;;;;;;5003507;28;20073;-83
2022/08/19 00:05:17;;;;;;;3.22;2.40;;;18.90;99.90;;;;;;5003320;28;20034;-82
2022/08/19 00:07:43;;;;;;;2.90;2.15;;;18.90;99.90;;;;;;5003304;28;20030;-83
2022/08/19 00:10:10;;;;;;;2.17;1.98;;;18.90;99.90;;;;;;5004129;28;20247;-83
2022/08/19 00:12:37;;;;;;;1.85;1.75;;;18.90;99.90;;;;;;5002731;28;20044;-82
2022/08/19 00:15:05;;;;;;;1.52;1.42;;;18.90;99.90;;;;;;5004288;28;20030;-83
2022/08/19 00:17:31;;;;;;;1.80;1.50;;;18.80;99.90;;;;;;5003209;28;20026;-83
2022/08/19 00:19:57;;;;;;;1.98;1.40;;;18.80;99.90;;;;;;5003145;28;20084;-83
2022/08/19 00:22:23;;;;;;;1.27;1.17;;;18.80;99.90;;;;;;5017966;28;20084;-84
2022/08/19 00:24:48;;;;;;;2.42;1.10;;;18.70;99.90;;;;;;5006633;28;22595;-84
2022/08/19 00:27:14;;;;;;;0.95;0.70;;;18.60;99.90;;;;;;5002990;28;22326;-82
2022/08/19 00:29:40;;;;;;;1.30;1.20;;;18.60;99.90;;;;;;4999686;28;20026;-84
2022/08/19 00:32:06;;;;;;;1.20;1.10;;;18.70;99.90;;;;;;5000872;28;20050;-83
2022/08/19 00:34:32;;;;;;;1.67;1.00;;;18.80;99.90;;;;;;5000291;28;20034;-82
2022/08/19 00:36:58;;;;;;;4.72;1.65;;;18.60;99.90;;;;;;5002824;28;20096;-84
2022/08/19 00:39:24;;;;;;;2.42;1.00;;;18.60;99.90;;;;;;5003898;28;20034;-84
2022/08/19 00:41:50;;;;;;;6.00;1.60;;;18.60;99.90;;;;;;5004118;28;20039;-83
2022/08/19 00:44:25;;;;;;;2.08;1.48;;;18.70;99.90;;;;;;5003814;28;20037;-83
2022/08/19 00:46:53;;;;;;;4.95;1.20;;;18.70;99.90;;;;;;5001347;28;20038;-82
2022/08/19 00:49:22;;;;;;;2.80;1.40;;;18.80;99.90;;;;;;5003573;28;20040;-82
2022/08/19 00:51:56;;;;;;;3.55;1.40;;;18.80;99.90;;;;;;5005262;28;20451;-83
2022/08/19 00:54:22;;;;;;;4.38;1.70;;;18.80;99.90;;;;;;5004891;28;20119;-84
2022/08/19 00:56:49;;;;;;;2.15;1.55;;;18.90;99.90;;;;;;5005634;28;20032;-87
2022/08/19 00:59:17;;;;;;;2.80;1.80;;;18.90;99.90;;;;;;5007008;28;20925;-88
2022/08/19 01:01:43;;;;;;;3.25;2.03;;;18.90;99.90;;;;;;5003782;28;20531;-80
2022/08/19 01:04:09;;;;;;;3.00;1.30;;;19.00;99.90;;;;;;5016312;28;20037;-80
2022/08/19 01:06:40;;;;;;;1.55;1.15;;;19.00;99.90;;;;;;5001933;28;20049;-82
2022/08/19 01:09:07;;;;;;;1.65;1.40;;;19.00;99.90;;;;;;5003239;28;20099;-81
2022/08/19 01:11:38;;;;;;;3.63;1.27;;;19.00;99.90;;;;;;5003318;28;20030;-79
2022/08/19 01:14:06;;;;;;;1.83;1.27;;;19.00;99.90;;;;;;5003877;28;20104;-80
2022/08/19 01:16:33;;;;;;;2.25;1.45;;;19.00;99.90;;;;;;5003974;28;20386;-80
2022/08/19 01:18:59;;;;;;;2.07;1.70;;;18.90;99.90;;;;;;5002587;28;20034;-79
2022/08/19 01:21:46;;;;;;;1.65;1.55;;;18.80;99.90;;;;;;5003456;28;20064;-80
2022/08/19 01:24:11;;;;;;;1.92;1.60;;;18.90;99.90;;;;;;5001505;28;20029;-80
2022/08/19 01:26:43;;;;;;;3.72;1.65;;;18.80;99.90;;;;;;5001673;28;20045;-80
2022/08/19 01:29:10;;;;;;;2.92;2.20;;;18.80;99.90;;;;;;4998355;28;20053;-80
2022/08/19 01:31:36;;;;;;;3.45;2.38;;;18.90;99.90;;;;;;4999645;28;20337;-80
2022/08/19 01:34:02;;;;;;;2.22;2.03;;;18.90;99.90;;;;;;4999942;28;21238;-81
2022/08/19 01:36:33;;;;;;;2.97;2.40;;;18.80;99.90;;;;;;5003026;28;20153;-81
2022/08/19 01:39:00;;;;;;;3.35;2.78;;;18.90;99.90;;;;;;5001093;28;20025;-80
2022/08/19 01:41:26;;;;;;;4.13;3.28;;;18.80;99.90;;;;;;4997910;28;20526;-80
2022/08/19 01:43:53;;;;;;;3.53;2.75;;;18.70;99.90;;;;;;4999153;28;20026;-82
2022/08/19 01:46:19;;;;;;;3.70;3.00;;;18.70;99.90;;;;;;4999428;28;20049;-81
2022/08/19 01:48:46;;;;;;;4.82;2.80;;;18.70;99.90;;;;;;4999157;28;20464;-81
2022/08/19 01:51:12;;;;;;;3.47;2.90;;;18.80;99.90;;;;;;4998475;28;21805;-81
2022/08/19 01:53:39;;;;;;;3.13;2.80;;;18.80;99.90;;;;;;5002381;28;20033;-81
2022/08/19 01:56:06;;;;;;;3.65;2.80;;;18.80;99.90;;;;;;5001101;28;20117;-81
2022/08/19 01:58:41;;;;;;;6.72;5.32;;;18.80;99.90;;;;;;4999829;28;20044;-81
2022/08/19 02:01:07;;;;;;;5.97;5.38;;;18.60;99.90;;;;;;4998830;28;20532;-81
2022/08/19 02:03:37;;;;;;;6.10;4.80;;;18.50;99.90;;;;;;4999886;28;20041;-80
2022/08/19 02:06:04;;;;;;;6.50;4.97;;;18.50;99.90;;;;;;4998098;28;20042;-79
2022/08/19 02:08:32;;;;;;;7.18;5.30;;;18.60;99.90;;;;;;4999972;28;20036;-81
2022/08/19 02:10:57;;;;;;;5.28;4.50;;;18.60;99.90;;;;;;5000028;28;20104;-81
2022/08/19 02:13:24;;;;;;;6.13;4.22;;;18.60;99.90;;;;;;5000905;28;20897;-81
2022/08/19 02:15:50;;;;;;;7.72;5.13;;;18.60;99.90;;;;;;5000183;28;20464;-81
2022/08/19 02:18:16;;;;;;;6.53;5.22;;;18.70;99.90;;;;;;4998620;28;20041;-82
2022/08/19 02:20:43;;;;;;;8.18;6.38;;;18.60;99.90;;;;;;4998709;28;20145;-82
2022/08/19 02:23:10;;;;;;;6.60;5.43;;;18.60;99.90;;;;;;4996398;28;20072;-81
2022/08/19 02:25:36;;;;;;;10.57;7.15;;;18.60;99.90;;;;;;4999869;28;20026;-82
2022/08/19 02:28:01;;;;;;;8.38;6.70;;;18.60;99.90;;;;;;5000720;28;20026;-81
2022/08/19 02:30:27;;;;;;;11.45;8.10;;;18.60;99.90;;;;;;4999988;28;20034;-82
2022/08/19 02:32:53;;;;;;;11.10;8.27;;;18.60;99.90;;;;;;4999289;28;20100;-83
2022/08/19 02:35:19;;;;;;;11.32;8.80;;;18.50;99.90;;;;;;5005163;28;20042;-82
2022/08/19 02:40:34;;;;;;;13.98;9.80;;;18.50;99.90;;;;;;5005161;28;20476;-83
2022/08/19 02:43:01;;;;;;;14.82;9.88;;;18.50;99.90;;;;;;5004174;28;20052;-83
2022/08/19 02:45:31;;;;;;;13.30;9.20;;;18.50;99.90;;;;;;5004830;28;20117;-83
2022/08/19 02:47:57;;;;;;;13.48;10.35;;;18.40;99.90;;;;;;5005279;28;20042;-84
2022/08/19 02:50:22;;;;;;;16.08;10.77;;;18.50;99.90;;;;;;5005762;28;20026;-84
2022/08/19 02:52:48;;;;;;;16.45;9.95;;;18.50;99.90;;;;;;5004052;28;20143;-83
2022/08/19 02:55:14;;;;;;;15.70;11.48;;;18.50;99.90;;;;;;5005431;28;20053;-83
2022/08/19 02:57:41;;;;;;;15.27;10.85;;;18.40;99.90;;;;;;5005981;28;20061;-84
2022/08/19 03:00:12;;;;;;;17.45;11.93;;;18.40;99.90;;;;;;5004501;28;20026;-85
2022/08/19 03:02:37;;;;;;;15.07;10.73;;;18.30;99.90;;;;;;5004153;28;20047;-83
2022/08/19 03:05:05;;;;;;;17.15;11.27;;;18.30;99.90;;;;;;5005625;28;20045;-85
2022/08/19 03:07:31;;;;;;;17.50;12.50;;;18.20;99.90;;;;;;5005935;28;20057;-84
2022/08/19 03:09:56;;;;;;;17.92;11.52;;;18.30;99.90;;;;;;5007714;28;20712;-84
2022/08/19 03:12:22;;;;;;;17.38;11.95;;;18.30;99.90;;;;;;5010011;28;20042;-82
2022/08/19 03:14:48;;;;;;;17.30;12.07;;;18.40;99.90;;;;;;5006380;28;20116;-84
2022/08/19 03:17:14;;;;;;;17.10;12.18;;;18.40;99.90;;;;;;5005808;28;20065;-82
2022/08/19 03:19:39;;;;;;;18.35;12.25;;;18.50;99.90;;;;;;5006965;28;20037;-84
2022/08/19 03:22:05;;;;;;;17.85;11.65;;;18.50;99.90;;;;;;5008735;28;20143;-83
2022/08/19 03:24:32;;;;;;;18.92;12.52;;;18.50;99.90;;;;;;5007250;28;20038;-84
2022/08/19 03:26:58;;;;;;;17.42;11.55;;;18.50;99.90;;;;;;5011078;28;20029;-84
2022/08/19 03:29:26;;;;;;;18.77;12.10;;;18.50;99.90;;;;;;5007786;28;20168;-83
2022/08/19 03:31:52;;;;;;;18.52;12.90;;;18.40;99.90;;;;;;5006838;28;20133;-85
2022/08/19 03:34:27;;;;;;;20.33;13.93;;;18.40;99.90;;;;;;5007792;28;20104;-85
2022/08/19 03:36:55;;;;;;;21.35;13.70;;;18.40;99.90;;;;;;5005086;28;20089;-84
2022/08/19 03:39:21;;;;;;;;;;;18.40;99.90;;;;;;5006166;28;20045;-82
2022/08/19 03:41:51;;;;;;;21.35;13.20;;;18.40;99.90;;;;;;5005549;28;19925;-85
2022/08/19 03:44:22;;;;;;;20.70;12.65;;;18.50;99.90;;;;;;5004442;28;20025;-84
2022/08/19 03:46:55;;;;;;;18.90;12.70;;;18.50;99.90;;;;;;4989045;28;20030;-83
2022/08/19 03:49:22;;;;;;;18.65;13.55;;;18.50;99.90;;;;;;5004590;28;20105;-84
2022/08/19 03:51:50;;;;;;;20.25;13.50;;;18.50;99.90;;;;;;5002514;28;20048;-85
2022/08/19 03:54:18;;;;;;;18.67;13.55;;;18.50;99.90;;;;;;5007377;28;20061;-85
2022/08/19 03:56:45;;;;;;;18.95;13.45;;;18.50;99.90;;;;;;5006366;28;20057;-83
2022/08/19 03:59:16;;;;;;;24.15;13.77;;;18.40;99.90;;;;;;5004232;28;20041;-84
2022/08/19 04:01:42;;;;;;;20.67;13.73;;;18.40;99.90;;;;;;5006549;28;20404;-84
2022/08/19 04:04:08;;;;;;;21.27;14.20;;;18.40;99.90;;;;;;5007226;28;20223;-85
2022/08/19 04:06:38;;;;;;;20.88;13.35;;;18.40;99.90;;;;;;5006758;28;20034;-85
2022/08/19 04:09:05;;;;;;;19.98;13.65;;;18.50;99.90;;;;;;5005758;28;20022;-84
2022/08/19 04:11:41;;;;;;;17.52;12.75;;;18.40;99.90;;;;;;5004751;28;20068;-84
2022/08/19 04:14:08;;;;;;;18.60;13.18;;;18.50;99.90;;;;;;5006745;28;20050;-85
2022/08/19 04:16:34;;;;;;;16.10;11.15;;;18.50;99.90;;;;;;5006033;28;20030;-84
2022/08/19 04:19:02;;;;;;;18.23;12.77;;;18.60;99.90;;;;;;5006503;28;20042;-84
2022/08/19 04:21:28;;;;;;;21.00;13.55;;;18.60;99.90;;;;;;5004877;28;20073;-85
2022/08/19 04:23:55;;;;;;;18.63;12.82;;;18.60;99.90;;;;;;5005476;28;20087;-84
2022/08/19 04:26:31;;;;;;;20.03;13.30;;;18.60;99.90;;;;;;5005926;28;20038;-83
2022/08/19 04:29:01;;;;;;;18.40;12.30;;;18.60;99.90;;;;;;5005907;28;20042;-84
2022/08/19 04:31:29;;;;;;;17.00;11.65;;;18.70;99.90;;;;;;5004138;28;20119;-85
2022/08/19 04:33:57;;;;;;;17.90;11.90;;;18.70;99.90;;;;;;5005287;28;20050;-83
2022/08/19 04:36:33;;;;;;;17.38;11.13;;;18.70;99.90;;;;;;5007864;28;20112;-85
2022/08/19 04:39:02;;;;;;;14.70;9.70;;;18.70;99.90;;;;;;5005700;28;20041;-85
2022/08/19 04:44:13;;;;;;;14.40;10.55;;;18.60;99.90;;;;;;5005383;28;20507;-83
2022/08/19 04:46:40;;;;;;;15.30;9.50;;;18.40;99.90;;;;;;5004023;28;20042;-84
2022/08/19 04:49:07;;;;;;;17.00;11.38;;;18.50;99.90;;;;;;5006986;28;20033;-84
2022/08/19 04:51:34;;;;;;;18.25;11.50;;;18.50;99.90;;;;;;5003143;28;20096;-84
2022/08/19 04:54:02;;;;;;;16.30;11.10;;;18.50;99.90;;;;;;5005410;28;20081;-83
2022/08/19 04:56:28;;;;;;;15.55;10.77;;;18.50;99.90;;;;;;5002413;28;20034;-83
2022/08/19 04:58:55;;;;;;;15.98;11.05;;;18.40;99.90;;;;;;4999932;28;20141;-83
2022/08/19 05:01:28;;;;;;;14.68;10.73;;;18.30;99.90;;;;;;5003065;28;20413;-83
2022/08/19 05:03:54;;;;;;;15.00;10.15;;;18.30;99.90;;;;;;5002435;28;20033;-83
2022/08/19 05:06:21;;;;;;;13.07;9.05;;;18.30;99.90;;;;;;5003458;28;20056;-84
2022/08/19 05:08:47;;;;;;;14.77;9.65;;;18.30;99.90;;;;;;5003036;28;20521;-83
2022/08/19 05:11:19;;;;;;;12.45;8.98;;;18.30;99.90;;;;;;5002535;28;20041;-83
2022/08/19 05:13:48;;;;;;;12.40;8.43;;;18.30;99.90;;;;;;5002424;28;20056;-83
2022/08/19 05:16:15;;;;;;;11.00;7.85;;;18.30;99.90;;;;;;5002524;28;20604;-84
2022/08/19 05:24:12;;;;;;;11.48;8.13;;;18.50;99.90;;;;;;5006391;28;20033;-83
2022/08/19 05:26:41;;;;;;;12.20;8.70;;;18.40;99.90;;;;;;5005975;28;20096;-83
2022/08/19 05:29:08;;;;;;;13.23;9.02;;;18.50;99.90;;;;;;5000545;28;20120;-82
2022/08/19 05:31:35;;;;;;;12.52;8.45;;;18.40;99.90;;;;;;5001094;28;20056;-83
2022/08/19 05:34:00;;;;;;;14.32;9.55;;;18.30;99.90;;;;;;5005306;28;20231;-85
2022/08/19 05:36:27;;;;;;;12.88;9.25;;;18.40;99.90;;;;;;5003209;28;20034;-84
2022/08/19 05:38:53;;;;;;;12.20;8.35;;;18.40;99.90;;;;;;5002623;28;20045;-83
2022/08/19 05:41:20;;;;;;;13.05;8.50;;;18.50;99.90;;;;;;5002096;28;20277;-84
2022/08/19 05:43:50;;;;;;;11.98;8.65;;;18.50;99.90;;;;;;5015481;28;20038;-84
2022/08/19 05:46:18;;;;;;;13.43;9.43;;;18.50;99.90;;;;;;5005504;28;20041;-84
2022/08/19 05:48:44;;;;;;;12.90;9.00;;;18.50;99.90;;;;;;5010302;28;20060;-84
2022/08/19 05:51:10;;;;;;;13.93;9.43;;;18.60;99.90;;;;;;5007316;28;20022;-83
2022/08/19 05:53:36;;;;;;;17.98;10.43;;;18.60;99.90;;;;;;5004144;28;20048;-84
2022/08/19 05:56:10;;;;;;;15.50;9.85;;;18.50;99.90;;;;;;5002626;28;20389;-84
2022/08/19 05:58:37;;;;;;;16.55;10.75;;;18.40;99.90;;;;;;5016277;28;20048;-83
2022/08/19 06:01:08;;;;;;;19.55;11.65;;;18.40;99.90;;;;;;5001653;28;20033;-82
2022/08/19 06:03:37;;;;;;;18.42;12.13;;;18.40;99.90;;;;;;5005585;28;20034;-82
2022/08/19 06:06:07;;;;;;;15.57;10.93;;;18.40;99.90;;;;;;5004028;28;20042;-83
2022/08/19 06:08:35;;;;;;;18.00;11.38;;;18.50;99.90;;;;;;5004657;28;20153;-82
2022/08/19 06:11:22;;;;;;;18.10;11.88;;;18.40;99.90;;;;;;5004566;28;20030;-80
2022/08/19 06:13:52;;;;;;;17.33;11.70;;;18.40;99.90;;;;;;5003358;28;20436;-79
2022/08/19 06:16:22;;;;;;;14.63;10.05;;;18.50;99.90;;;;;;5009642;28;20136;-78
2022/08/19 06:18:52;;;;;;;17.85;11.15;;;18.60;99.90;;;;;;4998826;28;20137;-79
2022/08/19 06:21:20;;;;;;;15.70;10.23;;;18.60;99.90;;;;;;5003733;28;20046;-79
2022/08/19 06:23:47;;;;;;;;;;;18.60;99.90;;;;;;5008104;28;20037;-79
2022/08/19 06:26:14;;;;;;;17.45;10.75;;;18.60;99.90;;;;;;5005481;28;20000;-79
2022/08/19 06:28:46;;;;;;;19.05;11.63;;;18.60;99.90;;;;;;5005116;28;20100;-79
2022/08/19 06:31:20;;;;;;;17.27;11.45;;;18.50;99.90;;;;;;5002838;28;20069;-80
2022/08/19 06:33:47;;;;;;;18.02;11.63;;;18.50;99.90;;;;;;5006980;28;20481;-78
2022/08/19 06:36:31;;;;;;;19.65;13.13;;;18.60;99.90;;;;;;5007340;28;20034;-79
2022/08/19 06:38:58;;;;;;;16.73;11.18;;;18.60;99.90;;;;;;5005030;28;20097;-79
2022/08/19 06:41:28;;;;;;;16.75;10.77;;;18.60;99.90;;;;;;5005027;28;20113;-79
2022/08/19 06:43:54;;;;;;;18.23;11.73;;;18.70;99.90;;;;;;5007559;28;20060;-79
2022/08/19 06:46:20;;;;;;;18.30;12.05;;;18.60;99.90;;;;;;5005367;28;20034;-79
2022/08/19 06:48:47;;;;;;;18.00;11.93;;;18.60;99.90;;;;;;5005371;28;20382;-79
2022/08/19 06:51:16;;;;;;;19.60;11.55;;;18.60;99.90;;;;;;5003719;28;20394;-79
2022/08/19 06:53:46;;;;;;;19.58;12.57;;;18.70;99.90;;;;;;5005511;28;20087;-79
2022/08/19 06:56:32;;;;;;;18.88;12.68;;;18.70;99.90;;;;;;5010961;28;20064;-79
2022/08/19 06:58:59;;;;;;;17.85;11.45;;;18.70;99.90;;;;;;5004689;28;20032;-80
2022/08/19 07:01:24;;;;;;;21.23;12.57;;;18.70;99.90;;;;;;5005453;28;20042;-79
2022/08/19 07:03:50;;;;;;;20.38;13.50;;;18.50;99.90;;;;;;5006616;28;20088;-80
2022/08/19 07:06:19;;;;;;;19.83;12.48;;;18.40;99.90;;;;;;5004659;28;20038;-80
2022/08/19 07:08:47;;;;;;;19.90;12.13;;;18.40;99.90;;;;;;5005970;28;20046;-79
2022/08/19 07:11:17;;;;;;;20.92;12.98;;;18.40;99.90;;;;;;5005543;28;20037;-80
2022/08/19 07:13:44;;;;;;;20.80;13.25;;;18.50;99.90;;;;;;5017729;28;20053;-79
2022/08/19 07:16:14;;;;;;;20.73;12.18;;;18.60;99.90;;;;;;5010197;28;20523;-79
2022/08/19 07:18:40;;;;;;;21.50;13.38;;;18.60;99.90;;;;;;5007081;28;20129;-79
2022/08/19 07:21:19;;;;;;;20.27;13.63;;;18.60;99.90;;;;;;5012260;28;20054;-79
2022/08/19 07:23:45;;;;;;;20.67;12.48;;;18.60;99.90;;;;;;5019260;28;20042;-79
2022/08/19 07:26:38;;;;;;;21.17;11.70;;;18.70;99.90;;;;;;5015120;28;20030;-79
2022/08/19 07:29:05;;;;;;;19.88;12.82;;;18.70;99.90;;;;;;5003550;28;20038;-79
2022/08/19 07:31:36;;;;;;;21.87;14.00;;;18.70;99.90;;;;;;5007840;28;20050;-79
2022/08/19 07:34:03;;;;;;;22.67;14.35;;;18.70;99.90;;;;;;5011184;28;20280;-79
2022/08/19 07:36:30;;;;;;;27.83;17.08;;;18.70;99.90;;;;;;5021221;28;20053;-80
2022/08/19 07:38:57;;;;;;;23.42;14.30;;;18.70;99.90;;;;;;5009160;28;20037;-79
2022/08/19 07:41:26;;;;;;;23.20;13.10;;;18.70;99.90;;;;;;5008955;28;20041;-80
2022/08/19 07:43:52;;;;;;;27.95;14.80;;;18.70;99.90;;;;;;5008073;28;20326;-80
2022/08/19 07:46:20;;;;;;;26.23;15.25;;;18.70;99.90;;;;;;5022089;28;20037;-80
2022/08/19 07:48:48;;;;;;;28.05;16.08;;;18.70;99.90;;;;;;5021968;28;20037;-80
2022/08/19 07:51:17;;;;;;;26.92;15.15;;;18.60;99.90;;;;;;5012173;28;20037;-80
2022/08/19 07:53:45;;;;;;;27.35;15.88;;;18.60;99.90;;;;;;4990699;28;20045;-79
2022/08/19 07:56:12;;;;;;;28.20;16.42;;;18.60;99.90;;;;;;5021433;28;20087;-80
2022/08/19 07:58:41;;;;;;;29.50;16.65;;;18.60;99.90;;;;;;5008353;28;20054;-81
2022/08/19 08:01:09;;;;;;;27.02;16.35;;;18.60;99.90;;;;;;5009893;28;20049;-80
2022/08/19 08:09:10;;;;;;;33.40;17.55;;;18.60;99.90;;;;;;5013815;28;20032;-80
2022/08/19 08:11:37;;;;;;;31.98;17.95;;;18.50;99.90;;;;;;5017837;28;20622;-79
2022/08/19 08:14:04;;;;;;;30.00;17.13;;;18.40;99.90;;;;;;5009564;28;20022;-79
2022/08/19 08:16:35;;;;;;;26.92;16.70;;;18.40;99.90;;;;;;5008091;28;20033;-80
2022/08/19 08:19:00;;;;;;;31.38;16.92;;;18.40;99.90;;;;;;5013618;28;20103;-79
2022/08/19 08:21:26;;;;;;;31.60;18.05;;;18.40;99.90;;;;;;5009816;28;20054;-80
2022/08/19 08:23:55;;;;;;;32.55;16.15;;;18.40;99.90;;;;;;5008690;28;20041;-80
2022/08/19 08:26:20;;;;;;;24.63;15.18;;;18.40;99.90;;;;;;5009636;28;20034;-80
2022/08/19 08:28:47;;;;;;;28.02;15.05;;;18.40;99.90;;;;;;5010658;28;20378;-80
2022/08/19 08:31:14;;;;;;;26.65;15.98;;;18.40;99.90;;;;;;5006256;28;20390;-79
2022/08/19 08:33:41;;;;;;;24.77;15.20;;;18.40;99.90;;;;;;5010203;28;20459;-80
2022/08/19 08:36:08;;;;;;;29.03;16.23;;;18.50;99.90;;;;;;5006452;28;20061;-80
2022/08/19 08:38:35;;;;;;;27.50;15.27;;;18.50;99.90;;;;;;5008195;28;20057;-80
2022/08/19 08:41:09;;;;;;;25.92;15.30;;;18.50;99.90;;;;;;5006376;28;20037;-80
2022/08/19 08:43:43;;;;;;;24.17;14.68;;;18.50;99.90;;;;;;5009999;28;20121;-80
2022/08/19 08:46:12;;;;;;;26.20;14.00;;;18.50;99.90;;;;;;5006302;28;20045;-80
2022/08/19 08:48:57;;;;;;;27.48;15.52;;;18.50;99.90;;;;;;5008515;28;20476;-80
2022/08/19 08:51:34;;;;;;;28.45;15.70;;;18.50;99.90;;;;;;5008465;28;20041;-80
2022/08/19 08:54:04;;;;;;;26.58;15.02;;;18.50;99.90;;;;;;5006666;28;20052;-80
2022/08/19 08:56:30;;;;;;;29.08;15.90;;;18.50;99.90;;;;;;5006551;28;20036;-80
2022/08/19 08:59:08;;;;;;;30.00;17.08;;;18.60;99.90;;;;;;5006938;28;20033;-80
2022/08/19 09:01:34;;;;;;;30.20;16.63;;;18.60;99.90;;;;;;5007045;28;20579;-80
2022/08/19 09:04:03;;;;;;;31.38;16.15;;;18.60;99.90;;;;;;5012155;28;20029;-79
2022/08/19 09:07:00;;;;;;;28.45;16.73;;;18.60;99.90;;;;;;5019595;28;20045;-80
2022/08/19 09:09:35;;;;;;;24.65;15.82;;;18.60;99.90;;;;;;5007817;28;20034;-80
2022/08/19 09:12:09;;;;;;;31.85;17.80;;;18.60;99.90;;;;;;5005954;28;20026;-80
2022/08/19 09:15:01;;;;;;;29.08;17.00;;;18.60;99.90;;;;;;5007421;28;20049;-80
2022/08/19 09:17:38;;;;;;;30.65;16.98;;;18.60;99.90;;;;;;4995590;28;20050;-79
2022/08/19 09:20:17;;;;;;;29.95;16.42;;;18.60;99.90;;;;;;5008818;28;20096;-79
2022/08/19 09:22:43;;;;;;;31.95;17.63;;;18.60;99.90;;;;;;5004781;28;20104;-80
2022/08/19 09:25:12;;;;;;;34.47;17.17;;;18.60;99.90;;;;;;5006952;28;20404;-79
2022/08/19 09:27:39;;;;;;;31.67;17.55;;;18.60;99.90;;;;;;5010021;28;20030;-79
2022/08/19 09:30:07;;;;;;;31.20;18.35;;;18.50;99.90;;;;;;5006998;28;20777;-80
2022/08/19 09:32:35;;;;;;;30.95;16.90;;;18.50;99.90;;;;;;5007712;28;20053;-80
2022/08/19 09:35:01;;;;;;;35.78;17.65;;;18.50;99.90;;;;;;5006575;28;20026;-80
2022/08/19 09:37:27;;;;;;;29.83;17.48;;;18.40;99.90;;;;;;5007247;28;20026;-80
2022/08/19 09:39:53;;;;;;;30.88;17.70;;;18.40;99.90;;;;;;5006465;28;20095;-80
2022/08/19 09:42:20;;;;;;;32.80;17.33;;;18.40;99.90;;;;;;5008836;28;20030;-80
2022/08/19 09:44:46;;;;;;;32.33;17.42;;;18.40;99.90;;;;;;5005923;28;20029;-81
2022/08/19 09:47:13;;;;;;;32.35;17.08;;;18.40;99.90;;;;;;5006883;28;20037;-80
2022/08/19 09:49:40;;;;;;;35.60;18.53;;;18.40;99.90;;;;;;5005227;28;20088;-80
2022/08/19 09:52:09;;;;;;;36.80;19.00;;;18.40;99.90;;;;;;5008721;28;20050;-80
2022/08/19 09:54:34;;;;;;;33.33;17.70;;;18.40;99.90;;;;;;5007818;28;20393;-80
2022/08/19 09:57:01;;;;;;;34.72;18.50;;;18.40;99.90;;;;;;5009069;28;20037;-79
2022/08/19 09:59:27;;;;;;;35.70;19.15;;;18.30;99.90;;;;;;5007242;28;20042;-80
2022/08/19 10:01:53;;;;;;;36.00;18.15;;;18.30;99.90;;;;;;5006721;28;20129;-79
2022/08/19 10:04:20;;;;;;;34.90;18.48;;;18.30;99.90;;;;;;5006888;28;20396;-79
2022/08/19 10:06:48;;;;;;;33.85;18.30;;;18.30;99.90;;;;;;5009977;28;20038;-79
2022/08/19 10:09:16;;;;;;;35.05;17.85;;;18.30;99.90;;;;;;5006119;28;20053;-79
2022/08/19 10:11:46;;;;;;;34.50;18.73;;;18.30;99.90;;;;;;5006460;28;20042;-79
2022/08/19 10:14:15;;;;;;;32.30;17.25;;;18.30;99.90;;;;;;5005763;28;20080;-79
2022/08/19 10:16:41;;;;;;;30.45;17.83;;;18.30;99.90;;;;;;5006817;28;20036;-81
2022/08/19 10:19:09;;;;;;;33.55;17.42;;;18.30;99.90;;;;;;5006145;28;20034;-79
2022/08/19 10:21:34;;;;;;;30.90;15.98;;;18.30;99.90;;;;;;5005767;28;20038;-80
2022/08/19 10:24:03;;;;;;;31.55;17.20;;;18.20;99.90;;;;;;5005955;28;20030;-80
2022/08/19 10:26:33;;;;;;;31.77;17.63;;;18.20;99.90;;;;;;5005995;28;20033;-80
2022/08/19 10:28:59;;;;;;;31.52;17.60;;;18.20;99.90;;;;;;5007292;28;20069;-81
2022/08/19 10:31:28;;;;;;;34.30;17.88;;;18.20;99.90;;;;;;5004761;28;20042;-81
2022/08/19 10:33:57;;;;;;;33.08;17.52;;;18.10;99.90;;;;;;5009045;28;20069;-81
2022/08/19 10:36:26;;;;;;;28.77;15.50;;;18.10;99.90;;;;;;5007122;28;20393;-81
2022/08/19 10:38:56;;;;;;;28.30;16.35;;;18.20;99.90;;;;;;5005342;28;20030;-80
2022/08/19 10:41:26;;;;;;;30.67;16.00;;;18.20;99.90;;;;;;5003846;28;20061;-80
2022/08/19 10:43:54;;;;;;;32.03;16.58;;;18.20;99.90;;;;;;5003948;28;20026;-80
2022/08/19 10:46:21;;;;;;;;;;;18.10;99.90;;;;;;5007092;28;20044;-80
2022/08/19 10:48:47;;;;;;;25.47;14.70;;;18.10;99.90;;;;;;5003924;28;19922;-80
2022/08/19 10:54:02;;;;;;;30.05;16.58;;;18.10;99.90;;;;;;4968888;28;20092;-81
2022/08/19 10:59:13;;;;;;;29.00;15.88;;;18.10;99.90;;;;;;5009386;28;20041;-80
2022/08/19 11:01:41;;;;;;;28.92;15.93;;;18.10;99.90;;;;;;5007800;28;20048;-80
2022/08/19 11:04:09;;;;;;;27.97;15.70;;;18.10;99.90;;;;;;5007572;28;20065;-80
2022/08/19 11:06:37;;;;;;;22.40;13.48;;;18.20;99.90;;;;;;5009873;28;20296;-80
2022/08/19 11:09:04;;;;;;;25.85;14.25;;;18.10;99.90;;;;;;5009730;28;20470;-80
2022/08/19 11:11:30;;;;;;;23.67;13.52;;;18.20;99.90;;;;;;5011289;28;20033;-80
2022/08/19 11:13:56;;;;;;;24.98;13.88;;;18.20;99.90;;;;;;5008658;28;20026;-81
2022/08/19 11:16:25;;;;;;;27.73;13.82;;;18.20;99.90;;;;;;5007468;28;20034;-81
2022/08/19 11:18:54;;;;;;;24.65;13.13;;;18.10;99.90;;;;;;5008313;28;20033;-81
2022/08/19 11:21:26;;;;;;;13.52;8.70;;;18.00;99.90;;;;;;5009238;28;20053;-81
2022/08/19 11:23:55;;;;;;;14.32;7.95;;;18.00;99.90;;;;;;5008150;28;20492;-81
2022/08/19 11:26:23;;;;;;;10.77;7.50;;;18.00;99.90;;;;;;5008214;28;20124;-81
2022/08/19 11:28:54;;;;;;;10.13;5.45;;;18.00;99.90;;;;;;5011766;28;20064;-81
2022/08/19 11:31:22;;;;;;;8.60;5.30;;;18.00;99.90;;;;;;5008579;28;20045;-81
2022/08/19 11:33:53;;;;;;;8.52;5.95;;;18.10;99.90;;;;;;5007850;28;20046;-79
2022/08/19 11:36:20;;;;;;;8.15;6.00;;;18.10;99.90;;;;;;5011313;28;20042;-80
2022/08/19 11:38:49;;;;;;;11.82;7.07;;;18.10;99.90;;;;;;5009172;28;20030;-78
2022/08/19 11:41:18;;;;;;;9.77;6.15;;;18.10;99.90;;;;;;5008468;28;20435;-78
2022/08/19 11:43:44;;;;;;;9.10;6.20;;;18.10;99.90;;;;;;5008025;28;20458;-77
2022/08/19 11:46:14;;;;;;;10.35;6.78;;;18.10;99.90;;;;;;5007831;28;20076;-78
2022/08/19 11:48:40;;;;;;;9.68;6.35;;;18.10;99.90;;;;;;5007468;28;20037;-77
2022/08/19 11:51:11;;;;;;;9.95;6.45;;;18.20;99.90;;;;;;5008673;28;20041;-77
2022/08/19 11:53:38;;;;;;;10.40;6.68;;;18.20;99.90;;;;;;5022647;28;20398;-78
2022/08/19 11:56:07;;;;;;;9.95;6.63;;;18.20;99.90;;;;;;5008199;28;20034;-76
2022/08/19 11:58:33;;;;;;;10.88;6.40;;;18.10;99.90;;;;;;5010043;28;20198;-76
2022/08/19 12:01:00;;;;;;;11.00;6.18;;;18.10;99.90;;;;;;5005130;28;20042;-76
2022/08/19 12:03:27;;;;;;;7.97;5.45;;;18.20;99.90;;;;;;5007874;28;20053;-76
2022/08/19 12:05:53;;;;;;;8.73;5.78;;;18.20;99.90;;;;;;5009391;28;20049;-77
2022/08/19 12:08:19;;;;;;;7.22;5.50;;;18.10;99.90;;;;;;5025613;28;20037;-76
2022/08/19 12:10:45;;;;;;;8.20;5.63;;;18.00;99.90;;;;;;5008997;28;20153;-77
2022/08/19 12:13:15;;;;;;;8.02;5.60;;;18.00;99.90;;;;;;5008956;28;20037;-76
2022/08/19 12:15:41;;;;;;;6.70;4.97;;;18.00;99.90;;;;;;5013010;28;20069;-76
2022/08/19 12:18:08;;;;;;;5.47;4.53;;;18.10;99.90;;;;;;5007533;28;20146;-76
2022/08/19 12:20:37;;;;;;;5.32;3.63;;;18.10;99.90;;;;;;5010560;28;20042;-76
2022/08/19 12:23:04;;;;;;;5.80;4.25;;;18.10;99.90;;;;;;5008765;28;20470;-76
2022/08/19 12:25:30;;;;;;;6.70;4.80;;;17.90;99.90;;;;;;5008629;28;20127;-77
2022/08/19 12:27:56;;;;;;;6.43;4.60;;;17.90;99.90;;;;;;5020603;28;20038;-77
2022/08/19 12:30:22;;;;;;;6.43;4.95;;;17.80;99.90;;;;;;5005416;28;20096;-78
2022/08/19 12:32:47;;;;;;;8.00;5.45;;;17.80;99.90;;;;;;5010645;28;20026;-76
2022/08/19 12:35:14;;;;;;;11.27;6.40;;;17.80;99.90;;;;;;5009475;28;20614;-77
2022/08/19 12:37:42;;;;;;;10.13;6.93;;;17.70;99.90;;;;;;5005395;28;20096;-77
2022/08/19 12:40:08;;;;;;;10.18;6.90;;;17.80;99.90;;;;;;5007556;28;20099;-77
2022/08/19 12:42:34;;;;;;;10.55;6.47;;;17.70;99.90;;;;;;5003632;28;20071;-77
2022/08/19 12:45:00;;;;;;;9.32;6.72;;;17.80;99.90;;;;;;5008441;28;20037;-76
2022/08/19 12:47:26;;;;;;;9.70;6.18;;;17.80;99.90;;;;;;5007835;28;20057;-76
2022/08/19 12:49:52;;;;;;;8.25;6.00;;;17.80;99.90;;;;;;5009244;28;20084;-77
2022/08/19 12:52:21;;;;;;;9.90;6.68;;;17.90;99.90;;;;;;5010478;28;20458;-75
2022/08/19 12:54:47;;;;;;;10.38;7.40;;;17.90;99.90;;;;;;5017034;28;20033;-77
2022/08/19 12:57:13;;;;;;;10.77;7.78;;;17.90;99.90;;;;;;5016747;28;20367;-77
2022/08/19 12:59:39;;;;;;;12.05;7.50;;;17.90;99.90;;;;;;5009435;28;20041;-78
2022/08/19 13:02:06;;;;;;;11.00;8.05;;;17.90;99.90;;;;;;5006398;28;20050;-76